Time;durP1;ratioP1;P1;durP2;ratioP2;P2;SDS_P1;SDS_P2;PMS_P1;PMS_P2;Temp;Humidity;BMP_temperature;BMP_pressure;BME280_temperature;BME280_humidity;BME280_pressure;Samples;Min_cycle;Max_cycle;Signal;HPM_P1;HPM_P2
2022/05/12 00:02:21;;;;;;;2.58;0.57;;;11.00;99.90;;;;;;5010978;28;20046;-49
2022/05/12 00:04:47;;;;;;;3.80;0.35;;;10.50;99.90;;;;;;5010781;28;20038;-52
2022/05/12 00:07:12;;;;;;;3.45;0.55;;;10.50;99.90;;;;;;5011000;28;20045;-51
2022/05/12 00:09:38;;;;;;;7.40;1.45;;;10.70;99.90;;;;;;5010800;28;20045;-48
2022/05/12 00:12:04;;;;;;;2.13;0.32;;;10.30;99.90;;;;;;5010455;28;20073;-50
2022/05/12 00:14:30;;;;;;;8.45;0.70;;;10.10;99.90;;;;;;5010522;28;20080;-51
2022/05/12 00:16:57;;;;;;;2.25;0.68;;;10.00;99.90;;;;;;5010459;28;20484;-50
2022/05/12 00:19:26;;;;;;;3.13;0.50;;;10.00;99.90;;;;;;5010505;28;20120;-49
2022/05/12 00:21:53;;;;;;;7.28;0.50;;;10.20;99.90;;;;;;5010466;28;20071;-51
2022/05/12 00:24:19;;;;;;;2.92;0.50;;;10.30;99.90;;;;;;5009970;28;20046;-48
2022/05/12 00:26:45;;;;;;;3.28;0.43;;;10.30;99.90;;;;;;5009801;28;20049;-47
2022/05/12 00:29:11;;;;;;;1.83;0.30;;;10.30;99.90;;;;;;5009944;28;20124;-52
2022/05/12 00:31:40;;;;;;;5.05;0.40;;;10.00;99.90;;;;;;5010256;28;20125;-48
2022/05/12 00:34:07;;;;;;;3.75;0.47;;;10.50;99.90;;;;;;5010019;28;20099;-49
2022/05/12 00:36:34;;;;;;;5.25;0.45;;;9.80;99.90;;;;;;5010166;28;20042;-51
2022/05/12 00:38:59;;;;;;;4.30;0.50;;;9.30;99.90;;;;;;5008937;28;20081;-49
2022/05/12 00:41:25;;;;;;;2.13;0.25;;;9.70;99.90;;;;;;5009917;28;20513;-48
2022/05/12 00:43:55;;;;;;;3.22;0.30;;;9.60;99.90;;;;;;5009414;28;20459;-51
2022/05/12 00:46:31;;;;;;;3.70;0.30;;;9.10;99.90;;;;;;5009225;28;20045;-50
2022/05/12 00:49:02;;;;;;;6.10;0.95;;;9.40;99.90;;;;;;5009599;28;20124;-52
2022/05/12 00:51:39;;;;;;;5.22;0.50;;;9.40;99.90;;;;;;4990262;28;20359;-53
2022/05/12 00:54:21;;;;;;;1.25;0.30;;;8.00;99.90;;;;;;4989748;28;20126;-49
2022/05/12 00:56:49;;;;;;;4.18;0.50;;;9.30;99.90;;;;;;4989996;28;20505;-48
2022/05/12 00:59:20;;;;;;;3.72;0.45;;;9.60;99.90;;;;;;4989553;28;20057;-51
2022/05/12 01:01:46;;;;;;;5.72;0.57;;;8.90;99.90;;;;;;4989946;28;20038;-52
2022/05/12 01:04:12;;;;;;;4.30;0.47;;;8.70;99.90;;;;;;4989749;28;20512;-48
2022/05/12 01:06:37;;;;;;;4.15;0.65;;;8.60;99.90;;;;;;4990217;28;20097;-53
2022/05/12 01:09:03;;;;;;;5.10;0.60;;;8.50;99.90;;;;;;4990157;28;20082;-52
2022/05/12 01:11:29;;;;;;;4.47;0.47;;;8.50;99.90;;;;;;4989791;28;20447;-49
2022/05/12 01:14:06;;;;;;;4.45;0.90;;;8.40;99.90;;;;;;4990045;28;20086;-51
2022/05/12 01:16:54;;;;;;;3.13;0.57;;;8.40;99.90;;;;;;4990054;28;20049;-50
2022/05/12 01:19:25;;;;;;;4.47;0.60;;;8.30;99.90;;;;;;4990102;28;20077;-49
2022/05/12 01:21:52;;;;;;;3.08;0.80;;;8.20;99.90;;;;;;4990521;28;20132;-50
2022/05/12 01:24:21;;;;;;;5.75;0.77;;;8.10;99.90;;;;;;4989814;28;20038;-50
2022/05/12 01:26:47;;;;;;;4.35;0.30;;;8.00;99.90;;;;;;4990464;28;20053;-52
2022/05/12 01:29:13;;;;;;;4.97;0.50;;;8.00;99.90;;;;;;4989753;28;20171;-49
2022/05/12 01:31:39;;;;;;;5.03;0.80;;;8.00;99.90;;;;;;4989471;28;20374;-49
2022/05/12 01:34:08;;;;;;;3.67;0.50;;;7.90;99.90;;;;;;4988827;28;20050;-49
2022/05/12 01:36:34;;;;;;;4.95;0.50;;;7.80;99.90;;;;;;4989193;28;20073;-50
2022/05/12 01:39:00;;;;;;;6.18;0.73;;;7.80;99.90;;;;;;5008216;28;20140;-51
2022/05/12 01:41:26;;;;;;;4.00;0.60;;;7.90;99.90;;;;;;5009371;28;20054;-52
2022/05/12 01:43:52;;;;;;;2.55;0.70;;;7.90;99.90;;;;;;5009087;28;20053;-48
2022/05/12 01:46:18;;;;;;;8.45;0.98;;;7.80;99.90;;;;;;5008769;28;20160;-48
2022/05/12 01:48:44;;;;;;;5.75;0.50;;;8.40;99.90;;;;;;5007798;28;20049;-51
2022/05/12 01:51:10;;;;;;;3.35;0.50;;;7.90;99.90;;;;;;4997116;28;20389;-47
2022/05/12 01:53:37;;;;;;;3.58;0.45;;;8.00;99.90;;;;;;4989978;28;20092;-49
2022/05/12 01:56:04;;;;;;;2.78;0.55;;;8.00;99.90;;;;;;4989497;28;20042;-51
2022/05/12 01:58:30;;;;;;;4.20;0.60;;;8.10;99.90;;;;;;4989733;28;20046;-51
2022/05/12 02:00:56;;;;;;;3.58;0.55;;;8.00;99.90;;;;;;4989375;28;20161;-52
2022/05/12 02:03:22;;;;;;;3.35;0.50;;;7.80;99.90;;;;;;4988929;28;20050;-49
2022/05/12 02:05:47;;;;;;;5.80;0.68;;;7.70;99.90;;;;;;4990872;28;20046;-49
2022/05/12 02:08:16;;;;;;;7.00;1.20;;;7.80;99.90;;;;;;4991709;28;20061;-48
2022/05/12 02:10:45;;;;;;;6.30;0.80;;;8.00;99.90;;;;;;4993193;28;20465;-50
2022/05/12 02:13:12;;;;;;;5.05;0.80;;;8.00;99.90;;;;;;4993032;28;20110;-49
2022/05/12 02:15:39;;;;;;;7.00;0.95;;;8.00;99.90;;;;;;4993156;28;20042;-49
2022/05/12 02:18:05;;;;;;;6.22;1.10;;;7.90;99.90;;;;;;4993784;28;20482;-50
2022/05/12 02:20:31;;;;;;;5.15;1.00;;;8.70;99.90;;;;;;4993565;28;20038;-51
2022/05/12 02:22:57;;;;;;;5.93;1.15;;;7.90;99.90;;;;;;4993649;28;20038;-49
2022/05/12 02:25:23;;;;;;;5.43;1.38;;;7.80;99.90;;;;;;4993117;28;20182;-50
2022/05/12 02:27:51;;;;;;;8.38;2.05;;;7.80;99.90;;;;;;4993354;28;20046;-49
2022/05/12 02:30:24;;;;;;;5.90;1.30;;;7.80;99.90;;;;;;4993197;28;20042;-52
2022/05/12 02:32:50;;;;;;;4.90;1.95;;;7.50;99.90;;;;;;4993041;28;20042;-50
2022/05/12 02:35:16;;;;;;;4.90;1.00;;;7.60;99.90;;;;;;4992816;28;20049;-50
2022/05/12 02:37:43;;;;;;;5.95;1.58;;;7.80;99.90;;;;;;5000874;28;20096;-50
2022/05/12 02:40:10;;;;;;;4.88;1.38;;;8.50;99.90;;;;;;5012508;28;20817;-48
2022/05/12 02:42:36;;;;;;;9.30;1.52;;;7.80;99.90;;;;;;5012428;28;20046;-52
2022/05/12 02:45:02;;;;;;;6.07;1.30;;;8.50;99.90;;;;;;5012731;28;20539;-51
2022/05/12 02:47:28;;;;;;;8.30;2.10;;;7.70;99.90;;;;;;5012088;28;20849;-49
2022/05/12 02:49:54;;;;;;;5.68;1.65;;;7.90;99.90;;;;;;5012306;28;20081;-51
2022/05/12 02:52:19;;;;;;;8.55;1.80;;;7.90;99.90;;;;;;4994158;28;20046;-52
2022/05/12 02:54:45;;;;;;;7.93;1.73;;;8.50;99.90;;;;;;4992518;28;20049;-49
2022/05/12 02:57:10;;;;;;;6.78;2.08;;;7.70;99.90;;;;;;4992491;28;20046;-52
2022/05/12 02:59:37;;;;;;;7.47;1.75;;;7.60;99.90;;;;;;4992480;28;20042;-51
2022/05/12 03:02:03;;;;;;;5.03;1.50;;;7.60;99.90;;;;;;4991388;28;20101;-52
2022/05/12 03:04:29;;;;;;;10.95;1.95;;;7.60;99.90;;;;;;4992651;28;20042;-49
2022/05/12 03:06:55;;;;;;;6.78;1.38;;;7.50;99.90;;;;;;4992841;28;20046;-48
2022/05/12 03:09:20;;;;;;;7.85;1.77;;;8.00;99.90;;;;;;4991784;28;20538;-50
2022/05/12 03:11:46;;;;;;;4.63;1.40;;;7.40;99.90;;;;;;4991999;28;20038;-48
2022/05/12 03:14:12;;;;;;;7.82;1.92;;;7.20;99.90;;;;;;4991906;28;20081;-51
2022/05/12 03:16:38;;;;;;;8.90;1.80;;;7.30;99.90;;;;;;4990240;28;20046;-48
2022/05/12 03:19:04;;;;;;;7.03;2.00;;;8.20;99.90;;;;;;4991482;28;20513;-49
2022/05/12 03:21:30;;;;;;;7.60;1.90;;;7.30;99.90;;;;;;4991244;28;20046;-50
2022/05/12 03:23:56;;;;;;;7.70;1.80;;;7.70;99.90;;;;;;4991466;28;20046;-49
2022/05/12 03:26:22;;;;;;;5.40;1.88;;;7.30;99.90;;;;;;4991598;28;20060;-49
2022/05/12 03:28:48;;;;;;;5.38;1.85;;;7.30;99.90;;;;;;4992106;28;20057;-50
2022/05/12 03:31:14;;;;;;;8.93;2.47;;;7.20;99.90;;;;;;4990577;28;20437;-51
2022/05/12 03:33:40;;;;;;;6.07;1.70;;;7.70;99.90;;;;;;4991736;28;20124;-52
2022/05/12 03:36:06;;;;;;;4.35;1.80;;;7.50;99.90;;;;;;4992033;28;20046;-49
2022/05/12 03:38:33;;;;;;;12.55;2.97;;;7.30;99.90;;;;;;5006724;28;20482;-52
2022/05/12 03:40:58;;;;;;;11.30;3.47;;;8.10;99.90;;;;;;5011236;28;20093;-48
2022/05/12 03:46:09;;;;;;;11.77;3.78;;;7.60;99.90;;;;;;4999023;28;20057;-49
2022/05/12 03:48:36;;;;;;;9.27;2.95;;;8.20;99.90;;;;;;4991135;28;20045;-48
2022/05/12 03:51:03;;;;;;;16.23;3.10;;;7.60;99.90;;;;;;4991772;28;20612;-49
2022/05/12 03:53:30;;;;;;;14.02;4.70;;;7.90;99.90;;;;;;4991014;28;20557;-48
2022/05/12 03:55:56;;;;;;;11.68;2.70;;;8.50;99.90;;;;;;4990733;28;20053;-52
2022/05/12 03:58:22;;;;;;;11.45;2.88;;;7.80;99.90;;;;;;4994306;28;20042;-51
2022/05/12 04:00:49;;;;;;;9.48;2.72;;;8.50;99.90;;;;;;5010593;28;20041;-48
2022/05/12 04:03:15;;;;;;;10.95;3.00;;;7.80;99.90;;;;;;5003169;28;20497;-58
2022/05/12 04:05:41;;;;;;;8.55;2.95;;;7.80;99.90;;;;;;4992140;28;20042;-55
2022/05/12 04:08:07;;;;;;;12.30;3.83;;;8.80;99.90;;;;;;4997512;28;20068;-57
2022/05/12 04:10:33;;;;;;;14.43;3.72;;;9.10;99.90;;;;;;4999830;28;20457;-58
2022/05/12 04:12:59;;;;;;;9.25;2.90;;;8.30;99.90;;;;;;4998374;28;20042;-57
2022/05/12 04:15:25;;;;;;;10.68;2.70;;;8.20;99.90;;;;;;4997566;28;20050;-52
2022/05/12 04:18:01;;;;;;;12.73;3.38;;;8.80;99.90;;;;;;4995871;28;20046;-52
2022/05/12 04:20:29;;;;;;;10.23;3.55;;;9.10;99.90;;;;;;4998711;28;20516;-54
2022/05/12 04:22:55;;;;;;;10.20;3.10;;;8.30;99.90;;;;;;4996705;28;20031;-47
2022/05/12 04:25:22;;;;;;;10.13;3.33;;;8.60;99.90;;;;;;4996892;28;20041;-53
2022/05/12 04:27:47;;;;;;;10.07;4.38;;;8.60;99.90;;;;;;5000850;28;20041;-51
2022/05/12 04:30:15;;;;;;;13.00;3.35;;;8.70;99.90;;;;;;5010601;28;20099;-52
2022/05/12 04:32:42;;;;;;;10.63;3.75;;;8.60;99.90;;;;;;5010544;28;20053;-53
2022/05/12 04:35:15;;;;;;;13.20;4.57;;;8.90;99.90;;;;;;5010507;28;20544;-53
2022/05/12 04:37:53;;;;;;;12.00;3.47;;;9.70;99.90;;;;;;5000871;28;20070;-53
2022/05/12 04:40:26;;;;;;;13.52;4.53;;;8.50;99.90;;;;;;4990839;28;20509;-52
2022/05/12 04:42:53;;;;;;;7.72;3.85;;;9.10;99.90;;;;;;4990797;28;20034;-51
2022/05/12 04:45:20;;;;;;;10.75;3.67;;;9.60;99.90;;;;;;4990787;28;20120;-52
2022/05/12 04:47:47;;;;;;;10.43;4.28;;;8.70;99.90;;;;;;4990330;28;20041;-50
2022/05/12 04:50:20;;;;;;;10.95;3.75;;;9.10;99.90;;;;;;4990778;28;20248;-54
2022/05/12 04:52:47;;;;;;;14.15;4.05;;;8.90;99.90;;;;;;4993986;28;20049;-50
2022/05/12 04:55:13;;;;;;;11.50;3.65;;;9.10;99.90;;;;;;5009708;28;20183;-51
2022/05/12 04:57:41;;;;;;;9.73;4.25;;;9.20;99.90;;;;;;5009057;28;20456;-51
2022/05/12 05:00:13;;;;;;;13.30;4.82;;;9.90;99.90;;;;;;5009037;28;20052;-51
2022/05/12 05:02:39;;;;;;;8.40;4.30;;;9.30;99.90;;;;;;5009363;28;20168;-50
2022/05/12 05:05:06;;;;;;;11.35;4.00;;;9.80;99.90;;;;;;5009237;28;20045;-48
2022/05/12 05:07:32;;;;;;;9.60;3.40;;;9.70;99.90;;;;;;5009146;28;20551;-48
2022/05/12 05:09:58;;;;;;;11.55;4.25;;;10.70;99.90;;;;;;5009487;28;20045;-51
2022/05/12 05:12:24;;;;;;;9.45;4.10;;;10.80;99.90;;;;;;5009626;28;20136;-49
2022/05/12 05:14:49;;;;;;;10.65;4.00;;;10.80;99.90;;;;;;5008136;28;20049;-49
2022/05/12 05:17:15;;;;;;;10.35;3.80;;;11.40;99.90;;;;;;5009535;28;20045;-53
2022/05/12 05:19:41;;;;;;;9.73;3.38;;;12.90;99.90;;;;;;5009164;28;20045;-49
2022/05/12 05:22:07;;;;;;;9.70;2.90;;;14.20;99.90;;;;;;5009140;28;20485;-50
2022/05/12 05:24:34;;;;;;;5.55;2.45;;;15.80;99.90;;;;;;5008994;28;20556;-49
2022/05/12 05:27:00;;;;;;;8.88;2.60;;;17.00;99.90;;;;;;5008828;28;20124;-51
2022/05/12 05:29:26;;;;;;;9.48;2.90;;;17.90;99.90;;;;;;5008022;28;20052;-53
2022/05/12 05:31:53;;;;;;;6.53;1.98;;;18.60;99.90;;;;;;5009115;28;20053;-50
2022/05/12 05:34:18;;;;;;;6.35;2.13;;;19.60;99.90;;;;;;5008089;28;20457;-53
2022/05/12 05:36:45;;;;;;;5.78;1.85;;;19.80;99.90;;;;;;5007648;28;20050;-53
2022/05/12 05:39:25;;;;;;;5.60;1.70;;;19.60;99.90;;;;;;4988842;28;20054;-52
2022/05/12 05:41:54;;;;;;;5.25;1.67;;;20.30;99.10;;;;;;4989007;28;20064;-53
2022/05/12 05:44:20;;;;;;;7.72;2.40;;;20.90;96.60;;;;;;4988058;28;20042;-51
2022/05/12 05:46:46;;;;;;;5.15;2.17;;;20.10;96.80;;;;;;4988896;28;20065;-52
2022/05/12 05:49:12;;;;;;;6.47;2.53;;;20.80;94.80;;;;;;4989408;28;20073;-53
2022/05/12 05:54:24;;;;;;;7.20;1.63;;;22.00;91.70;;;;;;5003064;28;20049;-53
2022/05/12 05:56:49;;;;;;;5.75;2.20;;;22.00;91.80;;;;;;5008409;28;20049;-54
2022/05/12 05:59:15;;;;;;;8.05;1.77;;;21.10;91.70;;;;;;5009175;28;20045;-54
2022/05/12 06:01:41;;;;;;;6.28;2.05;;;21.40;90.50;;;;;;5008641;28;20044;-53
2022/05/12 06:04:07;;;;;;;11.23;2.50;;;21.90;89.90;;;;;;5008930;28;20065;-54
2022/05/12 06:06:32;;;;;;;5.68;2.20;;;21.80;88.70;;;;;;5009046;28;20090;-54
2022/05/12 06:08:58;;;;;;;7.75;1.52;;;22.40;85.90;;;;;;5008628;28;20708;-54
2022/05/12 06:11:24;;;;;;;7.65;2.65;;;22.80;83.20;;;;;;5009133;28;20037;-54
2022/05/12 06:13:50;;;;;;;8.63;2.13;;;22.70;80.90;;;;;;5008997;28;20042;-55
2022/05/12 06:16:15;;;;;;;5.63;2.53;;;22.70;80.00;;;;;;5009361;28;20045;-53
2022/05/12 06:18:42;;;;;;;8.02;2.20;;;22.20;81.30;;;;;;5009246;28;20038;-54
2022/05/12 06:21:12;;;;;;;5.88;1.45;;;21.50;86.30;;;;;;5009423;28;20124;-55
2022/05/12 06:23:39;;;;;;;5.32;2.33;;;22.50;85.50;;;;;;5009010;28;20038;-55
2022/05/12 06:26:09;;;;;;;5.65;2.10;;;23.00;80.90;;;;;;5008870;28;20127;-54
2022/05/12 06:28:35;;;;;;;7.75;2.35;;;23.60;78.50;;;;;;5008693;28;20750;-56
2022/05/12 06:31:01;;;;;;;6.80;1.88;;;24.00;76.90;;;;;;5007222;28;20053;-54
2022/05/12 06:33:26;;;;;;;8.13;2.15;;;25.40;81.40;;;;;;5008647;28;20046;-55
2022/05/12 06:35:55;;;;;;;6.47;1.98;;;25.90;72.60;;;;;;5008528;28;20450;-55
2022/05/12 06:38:21;;;;;;;9.13;2.70;;;24.70;72.00;;;;;;5007477;28;20070;-54
2022/05/12 06:40:47;;;;;;;6.72;1.80;;;23.50;72.70;;;;;;5008824;28;20045;-54
2022/05/12 06:43:13;;;;;;;8.00;2.22;;;22.80;72.70;;;;;;5008858;28;20501;-55
2022/05/12 06:45:39;;;;;;;5.85;2.17;;;23.90;71.70;;;;;;5008797;28;20405;-53
2022/05/12 06:48:05;;;;;;;6.22;2.35;;;24.30;71.30;;;;;;5007923;28;20050;-54
2022/05/12 06:50:31;;;;;;;7.50;2.40;;;25.80;69.50;;;;;;5008634;28;20053;-55
2022/05/12 06:52:57;;;;;;;6.82;2.25;;;26.90;67.50;;;;;;5011382;28;20425;-54
2022/05/12 06:55:26;;;;;;;6.70;1.85;;;28.00;65.10;;;;;;4992924;28;20057;-56
2022/05/12 06:57:53;;;;;;;6.43;1.65;;;28.70;62.40;;;;;;4992489;28;20121;-55
2022/05/12 07:00:20;;;;;;;5.60;1.92;;;29.10;61.50;;;;;;4992899;28;20140;-55
2022/05/12 07:02:47;;;;;;;5.38;1.88;;;29.20;59.20;;;;;;4992623;28;20046;-55
2022/05/12 07:05:15;;;;;;;5.35;1.20;;;29.70;57.60;;;;;;4991143;28;20051;-54
2022/05/12 07:07:42;;;;;;;7.15;1.75;;;30.20;57.00;;;;;;4992667;28;20125;-55
2022/05/12 07:10:09;;;;;;;9.07;1.60;;;30.40;56.10;;;;;;4992287;28;20061;-56
2022/05/12 07:12:35;;;;;;;7.10;2.03;;;30.50;54.80;;;;;;4992072;28;20576;-56
2022/05/12 07:15:01;;;;;;;7.60;1.48;;;30.70;54.20;;;;;;4992172;28;20046;-55
2022/05/12 07:17:27;;;;;;;6.78;1.35;;;31.20;56.90;;;;;;4992138;28;20046;-56
2022/05/12 07:26:35;;;;;;;7.40;1.42;;;31.50;74.10;;;;;;4991956;28;20125;-56
2022/05/12 07:28:13;;;;;;;6.68;1.10;;;32.40;51.50;;;;;;4991963;28;20408;-56
2022/05/12 07:33:24;;;;;;;4.78;1.45;;;32.60;48.60;;;;;;4991915;28;20109;-56
2022/05/12 07:35:49;;;;;;;4.75;0.90;;;32.70;48.90;;;;;;4991393;28;20073;-55
2022/05/12 07:38:16;;;;;;;4.53;0.63;;;32.70;48.00;;;;;;5004210;28;20061;-56
2022/05/12 07:40:42;;;;;;;4.78;0.80;;;32.60;47.80;;;;;;5010135;28;20132;-57
2022/05/12 07:43:08;;;;;;;5.55;1.00;;;32.80;47.30;;;;;;5011074;28;20153;-57
2022/05/12 07:45:34;;;;;;;5.55;1.02;;;33.30;46.90;;;;;;5011313;28;20050;-57
2022/05/12 07:48:00;;;;;;;5.45;1.35;;;33.70;45.90;;;;;;5009895;28;20046;-57
2022/05/12 07:50:28;;;;;;;5.20;0.93;;;34.00;45.90;;;;;;5011048;28;20107;-40
2022/05/12 07:52:56;;;;;;;2.78;0.65;;;34.10;45.80;;;;;;4997145;28;20110;-40
2022/05/12 07:55:22;;;;;;;3.83;0.50;;;34.40;44.10;;;;;;5009592;28;20389;-40
2022/05/12 07:57:48;;;;;;;5.53;0.82;;;34.30;42.80;;;;;;5007985;28;20053;-41
2022/05/12 08:00:14;;;;;;;8.80;0.60;;;33.80;43.00;;;;;;5008177;28;20481;-40
2022/05/12 08:02:40;;;;;;;3.08;0.47;;;33.70;42.20;;;;;;5008370;28;20037;-41
2022/05/12 08:05:05;;;;;;;5.47;0.73;;;33.60;41.60;;;;;;5007309;28;20540;-41
2022/05/12 08:07:32;;;;;;;3.60;0.68;;;33.50;41.70;;;;;;5008300;28;20477;-41
2022/05/12 08:10:00;;;;;;;3.67;0.45;;;33.60;42.00;;;;;;5007658;28;20037;-42
2022/05/12 08:12:27;;;;;;;5.35;0.60;;;33.80;41.20;;;;;;5008391;28;20068;-41
2022/05/12 08:14:54;;;;;;;6.20;0.65;;;33.90;40.80;;;;;;5007296;28;20045;-41
2022/05/12 08:17:20;;;;;;;3.90;0.45;;;33.70;40.80;;;;;;5006473;28;20084;-42
2022/05/12 08:19:45;;;;;;;4.05;0.20;;;32.40;40.90;;;;;;5006544;28;20050;-41
2022/05/12 08:22:11;;;;;;;4.20;0.40;;;31.80;41.60;;;;;;5007302;28;20046;-41
2022/05/12 08:24:37;;;;;;;3.47;0.40;;;31.70;41.80;;;;;;5006305;28;20042;-43
2022/05/12 08:27:03;;;;;;;4.18;0.57;;;31.20;41.30;;;;;;5007667;28;20478;-43
2022/05/12 08:29:29;;;;;;;2.88;0.40;;;30.50;41.40;;;;;;5007665;28;20405;-41
2022/05/12 08:31:54;;;;;;;4.20;0.68;;;30.50;42.20;;;;;;5007515;28;20042;-40
2022/05/12 08:34:21;;;;;;;2.95;0.40;;;30.10;41.80;;;;;;5006987;28;20045;-40
2022/05/12 08:36:49;;;;;;;5.85;0.63;;;29.70;42.40;;;;;;5004735;28;20050;-40
2022/05/12 08:39:16;;;;;;;2.80;0.20;;;29.10;43.80;;;;;;4986660;28;20533;-40
2022/05/12 08:41:51;;;;;;;3.15;0.30;;;29.30;43.40;;;;;;4987765;28;20161;-39
2022/05/12 08:44:20;;;;;;;3.58;0.40;;;29.70;43.40;;;;;;4986915;28;20498;-41
2022/05/12 08:46:55;;;;;;;3.63;0.40;;;29.20;42.50;;;;;;4987241;28;20140;-40
2022/05/12 08:49:27;;;;;;;2.75;0.40;;;29.40;43.00;;;;;;4986344;28;20054;-40
2022/05/12 08:52:05;;;;;;;2.40;0.20;;;29.80;43.30;;;;;;4987349;28;20053;-40
2022/05/12 08:54:32;;;;;;;2.90;0.20;;;29.00;42.70;;;;;;5007356;28;20099;-39
2022/05/12 08:57:06;;;;;;;2.90;0.25;;;27.80;43.90;;;;;;5006649;28;20053;-40
2022/05/12 08:59:34;;;;;;;4.50;0.50;;;27.50;44.60;;;;;;5006433;28;20477;-40
2022/05/12 09:02:25;;;;;;;6.10;1.08;;;27.60;44.80;;;;;;5006347;28;20108;-40
2022/05/12 09:04:58;;;;;;;2.60;0.63;;;26.60;44.30;;;;;;5006180;28;20606;-40
2022/05/12 09:07:28;;;;;;;3.65;0.30;;;26.10;46.60;;;;;;5006038;28;20672;-41
2022/05/12 09:09:57;;;;;;;4.07;0.40;;;26.10;47.10;;;;;;5005972;28;20513;-41
2022/05/12 09:12:51;;;;;;;2.40;0.22;;;26.70;46.30;;;;;;5006146;28;20045;-41
2022/05/12 09:15:38;;;;;;;6.43;0.32;;;27.70;44.80;;;;;;5006350;28;20366;-40
2022/05/12 09:18:16;;;;;;;3.28;0.52;;;28.20;44.70;;;;;;5006578;28;20520;-41
2022/05/12 09:20:42;;;;;;;3.40;0.47;;;27.40;45.00;;;;;;5006987;28;20045;-41
2022/05/12 09:23:08;;;;;;;6.90;0.38;;;27.70;45.40;;;;;;5005478;28;20579;-42
2022/05/12 09:25:38;;;;;;;3.95;0.70;;;28.50;45.20;;;;;;5006348;28;20069;-40
2022/05/12 09:28:22;;;;;;;2.53;0.40;;;28.70;44.80;;;;;;5005561;28;20501;-41
2022/05/12 09:30:50;;;;;;;4.20;0.55;;;28.10;43.60;;;;;;5006453;28;20042;-40
2022/05/12 09:33:35;;;;;;;5.15;1.15;;;28.70;44.70;;;;;;5004901;28;20046;-40
2022/05/12 09:36:05;;;;;;;5.35;0.50;;;29.00;44.00;;;;;;5006376;28;20735;-38
2022/05/12 09:38:38;;;;;;;7.25;0.57;;;29.20;43.30;;;;;;4990409;28;20074;-39
2022/05/12 09:41:23;;;;;;;3.63;0.63;;;28.40;43.50;;;;;;4986822;28;20508;-40
2022/05/12 09:43:51;;;;;;;2.72;0.28;;;27.70;44.40;;;;;;4986774;28;20474;-41
2022/05/12 09:46:16;;;;;;;3.63;0.30;;;27.70;44.30;;;;;;4986565;28;20050;-41
2022/05/12 09:48:44;;;;;;;4.90;0.50;;;28.00;44.20;;;;;;4986787;28;20042;-39
2022/05/12 09:51:13;;;;;;;2.88;0.38;;;28.40;43.90;;;;;;4986539;28;20038;-39
2022/05/12 09:53:39;;;;;;;5.07;0.68;;;29.10;44.00;;;;;;4993220;28;20157;-39
2022/05/12 09:56:08;;;;;;;7.97;0.70;;;28.90;42.90;;;;;;4981792;28;20058;-39
2022/05/12 09:58:41;;;;;;;4.43;0.90;;;27.40;42.70;;;;;;4984611;28;20556;-39
2022/05/12 10:01:20;;;;;;;7.30;0.32;;;26.50;44.70;;;;;;4988714;28;20501;-39
2022/05/12 10:09:27;;;;;;;3.42;0.40;;;27.20;44.60;;;;;;4988967;28;20136;-40
2022/05/12 10:12:06;;;;;;;3.78;0.40;;;27.60;43.90;;;;;;4989232;28;20209;-40
2022/05/12 10:14:46;;;;;;;2.83;0.43;;;27.90;43.60;;;;;;4989140;28;20038;-43
2022/05/12 10:17:27;;;;;;;3.38;0.25;;;28.10;44.10;;;;;;4986590;28;20361;-53
2022/05/12 10:19:54;;;;;;;2.65;0.30;;;28.40;43.30;;;;;;5005695;28;20156;-52
2022/05/12 10:22:54;;;;;;;1.70;0.25;;;28.90;44.10;;;;;;5005094;28;20432;-53
2022/05/12 10:25:39;;;;;;;2.53;0.60;;;29.60;61.30;;;;;;5025202;28;20049;-52
2022/05/12 10:28:39;;;;;;;1.63;0.30;;;30.20;60.70;;;;;;5029636;28;20041;-54
2022/05/12 10:31:25;;;;;;;4.78;0.40;;;30.60;62.10;;;;;;5029862;28;20052;-54
2022/05/12 10:34:23;;;;;;;2.47;0.38;;;30.40;58.30;;;;;;5029456;28;20152;-51
2022/05/12 10:37:07;;;;;;;6.20;0.57;;;28.90;40.90;;;;;;5016526;28;20058;-51
2022/05/12 10:39:47;;;;;;;4.88;0.40;;;27.40;43.90;;;;;;5029278;28;20154;-50
2022/05/12 10:42:45;;;;;;;5.20;0.30;;;27.70;42.50;;;;;;5029607;28;20120;-55
2022/05/12 10:45:21;;;;;;;2.22;0.10;;;28.10;41.90;;;;;;5026889;28;20049;-54
2022/05/12 10:48:05;;;;;;;2.92;0.40;;;27.40;41.80;;;;;;5009331;28;20073;-51
2022/05/12 10:50:49;;;;;;;3.40;0.38;;;26.50;43.50;;;;;;5009400;28;20401;-52
2022/05/12 10:53:24;;;;;;;5.90;0.88;;;25.70;43.80;;;;;;5013311;28;20084;-52
2022/05/12 10:56:16;;;;;;;3.13;0.43;;;24.90;44.70;;;;;;5002751;28;20073;-54
2022/05/12 10:59:13;;;;;;;1.83;0.30;;;24.30;46.00;;;;;;4988954;28;20066;-53
2022/05/12 11:01:46;;;;;;;22.30;2.35;;;23.90;47.10;;;;;;4979250;28;20042;-52
2022/05/12 11:04:55;;;;;;;2.65;0.93;;;23.20;48.60;;;;;;4989787;28;20173;-53
2022/05/12 11:07:44;;;;;;;3.30;0.30;;;22.70;49.40;;;;;;4967132;28;20573;-53
2022/05/12 11:10:22;;;;;;;6.90;0.40;;;22.30;49.50;;;;;;4951472;28;20780;-52
2022/05/12 11:12:52;;;;;;;2.15;0.20;;;21.80;59.70;;;;;;4983966;28;20057;-53
2022/05/12 11:15:44;;;;;;;2.65;0.30;;;21.20;49.90;;;;;;4989248;28;20061;-51
2022/05/12 11:18:19;;;;;;;4.93;0.30;;;20.90;50.70;;;;;;5002680;28;20041;-49
2022/05/12 11:20:55;;;;;;;1.80;0.20;;;20.70;53.00;;;;;;5009311;28;20077;-55
2022/05/12 11:23:51;;;;;;;1.73;0.40;;;20.50;52.30;;;;;;5008672;28;20037;-54
2022/05/12 11:26:32;;;;;;;6.45;0.75;;;20.20;53.40;;;;;;5009026;28;20128;-52
2022/05/12 11:32:04;;;;;;;3.35;0.32;;;20.00;53.70;;;;;;5007806;28;20083;-51
2022/05/12 11:34:30;;;;;;;4.18;0.40;;;20.00;54.00;;;;;;5008788;28;20132;-54
2022/05/12 11:36:56;;;;;;;2.15;0.25;;;20.20;56.30;;;;;;5012189;28;20052;-50
2022/05/12 11:39:24;;;;;;;2.70;0.55;;;20.30;56.10;;;;;;5026701;28;20481;-51
2022/05/12 11:42:20;;;;;;;6.97;0.40;;;20.40;54.20;;;;;;5028476;28;20133;-47
2022/05/12 11:45:03;;;;;;;5.70;0.30;;;20.50;52.60;;;;;;5007498;28;20551;-49
2022/05/12 11:47:47;;;;;;;8.55;1.17;;;20.20;52.40;;;;;;5008320;28;20053;-52
2022/05/12 11:50:59;;;;;;;2.70;0.32;;;20.00;53.20;;;;;;5008915;28;20054;-51
2022/05/12 11:53:27;;;;;;;2.63;0.28;;;20.10;53.80;;;;;;4999346;28;20719;-47
2022/05/12 11:56:11;;;;;;;3.03;0.60;;;20.00;54.20;;;;;;5007915;28;20057;-54
2022/05/12 11:58:47;;;;;;;1.40;0.13;;;20.00;54.10;;;;;;4999477;28;20054;-53
2022/05/12 12:01:39;;;;;;;2.78;0.30;;;19.80;53.80;;;;;;4994156;28;20046;-52
2022/05/12 12:04:05;;;;;;;2.90;0.20;;;19.60;53.80;;;;;;4987774;28;21566;-50
2022/05/12 12:06:52;;;;;;;2.78;0.30;;;19.70;54.20;;;;;;5008062;28;20481;-51
2022/05/12 12:09:38;;;;;;;2.42;0.30;;;20.00;53.80;;;;;;5008038;28;20041;-52
2022/05/12 12:12:09;;;;;;;5.35;0.75;;;20.10;52.90;;;;;;5008582;28;20046;-48
2022/05/12 12:14:48;;;;;;;2.67;0.32;;;20.20;53.70;;;;;;5010909;28;20128;-50
2022/05/12 12:17:35;;;;;;;3.53;0.50;;;20.30;54.00;;;;;;5009412;28;20062;-50
2022/05/12 12:20:30;;;;;;;6.53;0.80;;;20.00;53.40;;;;;;5009560;28;20046;-48
2022/05/12 12:23:17;;;;;;;2.70;0.25;;;19.80;53.90;;;;;;5006855;28;20128;-51
2022/05/12 12:25:46;;;;;;;3.58;0.30;;;19.90;54.00;;;;;;5003031;28;20050;-48
2022/05/12 12:28:23;;;;;;;2.47;0.32;;;20.10;53.90;;;;;;5006047;28;20125;-50
2022/05/12 12:30:55;;;;;;;4.53;0.43;;;20.30;54.10;;;;;;5004644;28;20497;-48
2022/05/12 12:33:24;;;;;;;3.85;0.47;;;20.30;53.20;;;;;;5001082;28;20452;-49
2022/05/12 12:35:53;;;;;;;1.77;0.30;;;20.10;53.70;;;;;;5001043;28;20125;-49
2022/05/12 12:38:43;;;;;;;5.47;0.40;;;19.90;54.20;;;;;;5003669;28;20168;-49
2022/05/12 12:41:29;;;;;;;3.28;0.30;;;19.90;54.30;;;;;;5001971;28;20137;-48
2022/05/12 12:43:59;;;;;;;5.22;0.73;;;20.00;54.80;;;;;;5001214;28;20082;-50
2022/05/12 12:46:36;;;;;;;2.70;0.75;;;20.00;54.90;;;;;;5000808;28;20045;-51
2022/05/12 12:49:43;;;;;;;2.63;0.25;;;20.00;54.70;;;;;;5000029;28;20042;-49
2022/05/12 12:52:11;;;;;;;2.72;0.25;;;19.90;54.30;;;;;;4999702;28;20803;-48
2022/05/12 12:57:29;;;;;;;2.03;0.40;;;19.50;55.00;;;;;;4999367;28;20054;-47
2022/05/12 12:59:57;;;;;;;4.72;0.45;;;19.70;54.90;;;;;;4990219;28;20078;-48
2022/05/12 13:02:53;;;;;;;3.15;0.30;;;20.10;54.20;;;;;;4995788;28;20045;-49
2022/05/12 13:05:21;;;;;;;2.13;0.40;;;20.00;53.40;;;;;;4990431;28;20034;-46
2022/05/12 13:08:01;;;;;;;2.50;0.40;;;19.90;54.30;;;;;;4991618;28;20042;-51
2022/05/12 13:10:31;;;;;;;2.05;0.20;;;20.00;54.90;;;;;;4996967;28;20042;-50
2022/05/12 13:13:04;;;;;;;3.03;0.20;;;20.10;54.70;;;;;;5003227;28;20049;-48
2022/05/12 13:15:32;;;;;;;3.13;0.68;;;19.90;52.80;;;;;;5000175;28;20393;-49
2022/05/12 13:18:01;;;;;;;2.28;0.47;;;19.90;52.60;;;;;;4998793;28;20052;-50
2022/05/12 13:20:40;;;;;;;2.70;0.35;;;20.00;52.30;;;;;;4997703;28;20042;-49
2022/05/12 13:23:14;;;;;;;5.88;0.28;;;20.10;53.20;;;;;;5003271;28;20045;-51
2022/05/12 13:25:43;;;;;;;1.70;0.22;;;20.20;53.50;;;;;;5000941;28;20117;-49
2022/05/12 13:28:18;;;;;;;2.33;0.70;;;20.30;53.20;;;;;;4998913;28;20038;-48
2022/05/12 13:30:47;;;;;;;3.08;0.20;;;20.40;52.50;;;;;;4991610;28;20045;-50
2022/05/12 13:33:19;;;;;;;5.18;1.02;;;20.50;52.30;;;;;;4990911;28;20044;-48
2022/05/12 13:36:05;;;;;;;3.78;0.50;;;20.40;52.50;;;;;;4995483;28;20120;-50